createdAt,value
2017-05-20T00:01:57.253Z,97.50
2017-05-20T00:04:25.543Z,97.90
2017-05-20T00:06:53.822Z,97.70
2017-05-20T00:09:22.126Z,97.20
2017-05-20T00:11:50.411Z,97.10
2017-05-20T00:14:18.830Z,97.60
2017-05-20T00:16:47.111Z,97.50
2017-05-20T00:19:15.396Z,97.50
2017-05-20T00:21:43.819Z,97.40
2017-05-20T00:24:12.104Z,97.50
2017-05-20T00:26:40.392Z,97.50
2017-05-20T00:29:08.803Z,97.60
2017-05-20T00:31:37.094Z,97.60
2017-05-20T00:34:05.378Z,97.40
2017-05-20T00:36:33.687Z,97.40
2017-05-20T00:39:01.971Z,97.20
2017-05-20T00:41:30.471Z,97.60
2017-05-20T00:43:58.764Z,97.50
2017-05-20T00:46:27.071Z,97.40
2017-05-20T00:48:55.713Z,97.80
2017-05-20T00:51:24.003Z,98.00
2017-05-20T00:53:52.278Z,97.80
2017-05-20T00:56:20.588Z,97.20
2017-05-20T00:58:48.871Z,97.20
2017-05-20T01:01:17.283Z,97.30
2017-05-20T01:03:45.563Z,97.30
2017-05-20T01:06:13.854Z,97.70
2017-05-20T01:08:42.156Z,97.80
2017-05-20T01:11:10.450Z,97.70
2017-05-20T01:13:39.180Z,97.80
2017-05-20T01:16:07.464Z,98.00
2017-05-20T01:18:35.751Z,98.20
2017-05-20T01:21:04.443Z,97.60
2017-05-20T01:23:32.774Z,97.10
2017-05-20T01:26:01.377Z,97.20
2017-05-20T01:28:29.664Z,97.00
2017-05-20T01:30:57.947Z,97.00
2017-05-20T01:33:26.626Z,97.00
2017-05-20T01:35:54.912Z,97.10
2017-05-20T01:38:23.192Z,97.10
2017-05-20T01:40:51.512Z,96.80
2017-05-20T01:43:19.795Z,96.90
2017-05-20T01:45:48.238Z,96.70
2017-05-20T01:48:16.527Z,96.70
2017-05-20T01:50:44.811Z,96.60
2017-05-20T01:53:13.222Z,96.50
2017-05-20T01:55:41.503Z,96.50
2017-05-20T01:58:09.791Z,96.60
2017-05-20T02:00:38.099Z,97.00
2017-05-20T02:03:06.391Z,96.90
2017-05-20T02:05:34.700Z,96.70
2017-05-20T02:08:02.982Z,96.90
2017-05-20T02:10:31.404Z,96.80
2017-05-20T02:12:59.966Z,97.00
2017-05-20T02:15:28.264Z,96.60
2017-05-20T02:17:56.675Z,96.60
2017-05-20T02:20:24.955Z,96.60
2017-05-20T02:22:53.241Z,96.80
2017-05-20T02:25:21.542Z,96.80
2017-05-20T02:27:49.823Z,97.20
2017-05-20T02:30:18.496Z,97.40
2017-05-20T02:32:46.783Z,97.20
2017-05-20T02:35:15.070Z,97.10
2017-05-20T02:37:43.381Z,96.80
2017-05-20T02:40:11.675Z,96.80
2017-05-20T02:42:40.087Z,96.90
2017-05-20T02:45:08.408Z,97.30
2017-05-20T02:47:36.695Z,97.60
2017-05-20T02:50:05.114Z,97.70
2017-05-20T02:52:33.396Z,97.70
2017-05-20T02:55:01.686Z,97.30
2017-05-20T02:57:30.241Z,97.10
2017-05-20T02:59:58.540Z,97.30
2017-05-20T03:02:26.827Z,97.60
2017-05-20T03:04:55.374Z,97.70
2017-05-20T03:07:23.657Z,97.50
2017-05-20T03:09:51.939Z,97.10
2017-05-20T03:12:20.256Z,97.10
2017-05-20T03:14:48.552Z,97.00
2017-05-20T03:17:16.977Z,96.90
2017-05-20T03:19:45.254Z,97.10
2017-05-20T03:22:13.642Z,97.50
2017-05-20T03:24:41.946Z,97.90
2017-05-20T03:27:10.313Z,97.90
2017-05-20T03:29:38.804Z,97.90
2017-05-20T03:32:07.087Z,96.80
2017-05-20T03:34:35.377Z,96.90
2017-05-20T03:37:03.691Z,96.90
2017-05-20T03:39:31.980Z,97.20
2017-05-20T03:42:00.398Z,97.40
2017-05-20T03:44:28.687Z,97.30
2017-05-20T03:46:56.975Z,97.00
2017-05-20T03:49:25.287Z,96.80
2017-05-20T03:51:53.579Z,96.80
2017-05-20T03:54:22.001Z,97.10
2017-05-20T03:56:50.288Z,96.70
2017-05-20T03:59:18.579Z,96.90
2017-05-20T04:01:46.887Z,97.20
2017-05-20T04:04:16.692Z,97.30
2017-05-20T04:06:45.000Z,97.50
2017-05-20T04:09:13.290Z,97.70
2017-05-20T04:11:41.714Z,98.10
2017-05-20T04:14:10.005Z,98.50
2017-05-20T04:16:38.287Z,98.60
2017-05-20T04:19:06.603Z,98.70
2017-05-20T04:21:34.888Z,98.40
2017-05-20T04:24:03.300Z,98.20
2017-05-20T04:26:31.588Z,98.10
2017-05-20T04:28:59.868Z,98.10
2017-05-20T04:31:28.167Z,97.80
2017-05-20T04:33:56.446Z,96.80
2017-05-20T04:36:24.747Z,96.40
2017-05-20T04:38:53.031Z,96.60
2017-05-20T04:41:21.439Z,96.70
2017-05-20T04:43:49.738Z,97.20
2017-05-20T04:46:18.034Z,96.10
2017-05-20T04:48:46.439Z,96.60
2017-05-20T04:51:14.728Z,95.90
2017-05-20T04:53:43.091Z,95.80
2017-05-20T04:56:11.406Z,96.80
2017-05-20T04:58:39.683Z,96.20
2017-05-20T05:01:08.091Z,95.30
2017-05-20T05:03:36.376Z,95.90
2017-05-20T05:06:04.659Z,95.70
2017-05-20T05:08:32.960Z,96.10
2017-05-20T05:11:01.234Z,96.30
2017-05-20T05:13:29.647Z,95.60
2017-05-20T05:15:57.941Z,95.70
2017-05-20T05:18:26.219Z,94.90
2017-05-20T05:20:54.530Z,95.80
2017-05-20T05:23:22.811Z,96.40
2017-05-20T05:25:51.379Z,96.00
2017-05-20T05:28:19.671Z,95.60
2017-05-20T05:30:47.960Z,95.60
2017-05-20T05:33:16.666Z,95.40
2017-05-20T05:35:44.943Z,95.20
2017-05-20T05:38:13.346Z,94.60
2017-05-20T05:40:41.636Z,93.40
2017-05-20T05:43:09.910Z,94.00
2017-05-20T05:45:38.210Z,93.00
2017-05-20T05:48:06.491Z,93.20
2017-05-20T05:50:34.962Z,94.10
2017-05-20T05:53:03.243Z,92.30
2017-05-20T05:55:31.554Z,93.60
2017-05-20T05:57:59.966Z,93.20
2017-05-20T06:00:28.243Z,93.50
2017-05-20T06:02:56.514Z,93.60
2017-05-20T06:05:24.820Z,94.40
2017-05-20T06:07:53.106Z,93.00
2017-05-20T06:10:21.526Z,93.10
2017-05-20T06:12:50.635Z,93.40
2017-05-20T06:15:18.919Z,93.10
2017-05-20T06:17:47.327Z,93.90
2017-05-20T06:20:15.604Z,93.70
2017-05-20T06:22:43.881Z,93.00
2017-05-20T06:25:12.283Z,92.80
2017-05-20T06:27:40.563Z,92.90
2017-05-20T06:30:08.841Z,92.90
2017-05-20T06:32:37.259Z,92.70
2017-05-20T06:35:05.550Z,92.90
2017-05-20T06:37:33.834Z,92.20
2017-05-20T06:40:02.139Z,92.40
2017-05-20T06:42:30.423Z,93.30
2017-05-20T06:44:58.964Z,92.40
2017-05-20T06:47:27.298Z,92.30
2017-05-20T06:49:55.579Z,92.50
2017-05-20T06:52:23.898Z,91.40
2017-05-20T06:54:52.176Z,91.80
2017-05-20T06:57:20.851Z,90.90
2017-05-20T06:59:49.128Z,90.50
2017-05-20T07:02:17.411Z,91.60
2017-05-20T07:04:46.091Z,90.00
2017-05-20T07:07:14.370Z,89.40
2017-05-20T07:09:42.647Z,89.80
2017-05-20T07:12:11.062Z,89.50
2017-05-20T07:14:39.347Z,89.50
2017-05-20T07:17:07.651Z,89.00
2017-05-20T07:19:36.058Z,86.40
2017-05-20T07:22:04.355Z,87.00
2017-05-20T07:24:32.637Z,86.00
2017-05-20T07:27:01.119Z,85.50
2017-05-20T07:29:29.406Z,88.00
2017-05-20T07:31:57.695Z,87.10
2017-05-20T07:34:26.007Z,86.00
2017-05-20T07:36:54.285Z,88.40
2017-05-20T07:39:22.979Z,83.80
2017-05-20T07:41:51.263Z,84.70
2017-05-20T07:44:19.555Z,81.40
2017-05-20T07:46:47.970Z,82.80
2017-05-20T07:49:16.255Z,82.90
2017-05-20T07:51:44.568Z,82.50
2017-05-20T07:54:12.883Z,82.10
2017-05-20T07:56:41.164Z,81.30
2017-05-20T07:59:10.116Z,83.90
2017-05-20T08:01:38.404Z,79.90
2017-05-20T08:04:06.690Z,80.70
2017-05-20T08:06:34.995Z,82.60
2017-05-20T08:09:03.276Z,84.20
2017-05-20T08:11:31.685Z,82.40
2017-05-20T08:13:59.975Z,82.30
2017-05-20T08:16:28.255Z,80.80
2017-05-20T08:18:56.671Z,75.90
2017-05-20T08:21:24.952Z,78.00
2017-05-20T08:23:53.235Z,74.10
2017-05-20T08:26:21.542Z,74.60
2017-05-20T08:28:49.832Z,73.90
2017-05-20T08:31:18.247Z,74.20
2017-05-20T08:33:46.549Z,73.70
2017-05-20T08:36:15.584Z,75.20
2017-05-20T08:38:44.571Z,73.60
2017-05-20T08:41:12.912Z,70.80
2017-05-20T08:43:41.225Z,72.80
2017-05-20T08:46:09.535Z,71.40
2017-05-20T08:48:37.916Z,70.60
2017-05-20T08:51:06.330Z,69.10
2017-05-20T08:53:34.927Z,71.60
2017-05-20T08:56:04.437Z,69.80
2017-05-20T08:58:32.883Z,67.00
2017-05-20T09:01:01.178Z,67.90
2017-05-20T09:03:29.478Z,67.00
2017-05-20T09:05:57.771Z,66.70
2017-05-20T09:08:26.188Z,67.30
2017-05-20T09:10:54.475Z,66.30
2017-05-20T09:13:22.764Z,66.20
2017-05-20T09:15:51.068Z,64.80
2017-05-20T09:18:19.351Z,62.90
2017-05-20T09:20:47.659Z,63.50
2017-05-20T09:23:15.947Z,61.40
2017-05-20T09:25:44.375Z,63.90
2017-05-20T09:28:12.668Z,64.20
2017-05-20T09:30:40.961Z,63.00
2017-05-20T09:33:09.263Z,63.50
2017-05-20T09:35:37.552Z,62.80
2017-05-20T09:38:06.215Z,61.80
2017-05-20T09:40:34.507Z,59.50
2017-05-20T09:43:02.807Z,60.70
2017-05-20T09:45:31.111Z,63.10
2017-05-20T09:47:59.387Z,61.70
2017-05-20T09:50:28.182Z,60.10
2017-05-20T09:52:56.460Z,59.70
2017-05-20T09:55:24.737Z,58.80
2017-05-20T09:57:53.038Z,59.80
2017-05-20T10:00:21.315Z,59.20
2017-05-20T10:02:50.014Z,57.70
2017-05-20T10:05:18.282Z,57.00
2017-05-20T10:07:46.566Z,57.80
2017-05-20T10:10:14.859Z,58.10
2017-05-20T10:12:43.131Z,58.60
2017-05-20T10:15:11.606Z,57.80
2017-05-20T10:17:39.888Z,58.00
2017-05-20T10:20:08.163Z,58.40
2017-05-20T10:22:36.467Z,58.60
2017-05-20T10:25:04.745Z,57.20
2017-05-20T10:27:33.282Z,57.50
2017-05-20T10:30:01.566Z,58.70
2017-05-20T10:32:29.858Z,58.80
2017-05-20T10:34:58.267Z,57.80
2017-05-20T10:37:26.551Z,56.60
2017-05-20T10:39:54.827Z,56.60
2017-05-20T10:42:23.139Z,57.50
2017-05-20T10:44:51.420Z,57.10
2017-05-20T10:47:19.737Z,57.30
2017-05-20T10:49:48.019Z,57.20
2017-05-20T10:52:16.422Z,57.60
2017-05-20T10:54:44.706Z,56.70
2017-05-20T10:57:12.982Z,56.00
2017-05-20T10:59:42.221Z,57.10
2017-05-20T11:02:10.515Z,56.00
2017-05-20T11:04:38.794Z,56.50
2017-05-20T11:07:07.223Z,55.20
2017-05-20T11:09:35.510Z,53.00
2017-05-20T11:12:03.806Z,54.20
2017-05-20T11:14:32.107Z,54.70
2017-05-20T11:17:00.386Z,52.00
2017-05-20T11:19:28.794Z,53.90
2017-05-20T11:21:57.070Z,54.70
2017-05-20T11:24:25.350Z,55.40
2017-05-20T11:26:53.655Z,53.90
2017-05-20T11:29:21.932Z,53.80
2017-05-20T11:31:50.243Z,53.50
2017-05-20T11:34:18.528Z,53.60
2017-05-20T11:36:47.169Z,53.70
2017-05-20T11:39:15.452Z,54.40
2017-05-20T11:41:43.742Z,54.60
2017-05-20T11:44:12.039Z,51.30
2017-05-20T11:46:40.319Z,52.60
2017-05-20T11:49:08.945Z,54.20
2017-05-20T11:51:37.228Z,53.20
2017-05-20T11:54:05.507Z,50.90
2017-05-20T11:56:33.919Z,50.00
2017-05-20T11:59:02.205Z,49.60
2017-05-20T12:01:30.496Z,50.30
2017-05-20T12:03:58.798Z,50.60
2017-05-20T12:06:27.078Z,51.00
2017-05-20T12:08:55.490Z,51.40
2017-05-20T12:11:23.767Z,52.10
2017-05-20T12:13:52.048Z,52.70
2017-05-20T12:16:20.351Z,50.00
2017-05-20T12:18:48.634Z,49.00
2017-05-20T12:21:17.279Z,49.40
2017-05-20T12:23:45.575Z,49.80
2017-05-20T12:28:48.643Z,49.90
2017-05-20T12:31:16.928Z,50.20
2017-05-20T12:33:45.230Z,50.50
2017-05-20T12:36:13.532Z,50.30
2017-05-20T12:38:41.934Z,50.20
2017-05-20T12:41:10.206Z,51.20
2017-05-20T12:43:38.487Z,49.90
2017-05-20T12:46:06.796Z,50.00
2017-05-20T12:48:35.087Z,49.50
2017-05-20T12:51:03.815Z,49.60
2017-05-20T12:53:32.101Z,49.90
2017-05-20T12:56:00.379Z,49.80
2017-05-20T12:58:28.793Z,49.10
2017-05-20T13:00:57.087Z,49.00
2017-05-20T13:03:25.374Z,49.70
2017-05-20T13:05:53.788Z,49.90
2017-05-20T13:08:22.070Z,49.10
2017-05-20T13:10:50.353Z,49.50
2017-05-20T13:13:18.783Z,51.10
2017-05-20T13:15:47.095Z,51.90
2017-05-20T13:18:15.394Z,53.80
2017-05-20T13:20:43.812Z,51.10
2017-05-20T13:23:12.123Z,52.30
2017-05-20T13:25:40.402Z,51.10
2017-05-20T13:28:08.904Z,52.40
2017-05-20T13:30:37.187Z,52.10
2017-05-20T13:33:05.475Z,50.90
2017-05-20T13:35:33.887Z,50.00
2017-05-20T13:38:02.173Z,48.90
2017-05-20T13:40:30.471Z,49.40
2017-05-20T13:42:58.900Z,48.30
2017-05-20T13:45:27.187Z,48.80
2017-05-20T13:47:55.475Z,47.40
2017-05-20T13:50:23.902Z,48.10
2017-05-20T13:52:52.199Z,47.30
2017-05-20T13:55:21.209Z,47.70
2017-05-20T13:57:49.527Z,47.30
2017-05-20T14:00:17.813Z,46.50
2017-05-20T14:02:46.227Z,46.40
2017-05-20T14:05:14.524Z,47.10
2017-05-20T14:07:42.826Z,49.10
2017-05-20T14:10:11.613Z,47.70
2017-05-20T14:12:39.899Z,47.90
2017-05-20T14:15:08.184Z,47.70
2017-05-20T14:17:36.516Z,48.10
2017-05-20T14:20:04.865Z,47.60
2017-05-20T14:22:33.276Z,46.80
2017-05-20T14:25:01.564Z,47.00
2017-05-20T14:27:29.851Z,47.20
2017-05-20T14:29:58.196Z,46.30
2017-05-20T14:32:26.487Z,47.50
2017-05-20T14:34:54.899Z,48.50
2017-05-20T14:37:23.205Z,48.30
2017-05-20T14:39:51.499Z,48.90
2017-05-20T14:42:19.807Z,48.90
2017-05-20T14:44:48.083Z,47.60
2017-05-20T14:47:16.664Z,46.80
2017-05-20T14:49:44.969Z,49.20
2017-05-20T14:52:13.258Z,47.50
2017-05-20T14:54:41.564Z,46.10
2017-05-20T14:57:09.844Z,46.20
2017-05-20T14:59:38.261Z,46.20
2017-05-20T15:02:06.549Z,44.60
2017-05-20T15:04:34.838Z,46.00
2017-05-20T15:07:03.158Z,44.90
2017-05-20T15:09:31.453Z,44.70
2017-05-20T15:11:59.964Z,42.60
2017-05-20T15:14:28.289Z,43.60
2017-05-20T15:16:56.616Z,42.40
2017-05-20T15:19:25.057Z,41.30
2017-05-20T15:21:53.355Z,41.80
2017-05-20T15:24:21.648Z,41.20
2017-05-20T15:26:50.069Z,40.40
2017-05-20T15:29:18.356Z,40.80
2017-05-20T15:31:46.651Z,41.20
2017-05-20T15:34:15.067Z,41.20
2017-05-20T15:36:43.363Z,41.00
2017-05-20T15:39:11.707Z,41.70
2017-05-20T15:41:40.011Z,40.80
2017-05-20T15:44:08.307Z,41.80
2017-05-20T15:46:36.735Z,42.50
2017-05-20T15:49:04.255Z,42.50
2017-05-20T15:51:32.535Z,41.60
2017-05-20T15:54:01.209Z,38.30
2017-05-20T15:56:29.491Z,39.00
2017-05-20T15:58:57.915Z,39.50
2017-05-20T16:01:26.194Z,41.40
2017-05-20T16:03:54.469Z,38.30
2017-05-20T16:06:22.775Z,37.40
2017-05-20T16:08:51.067Z,38.80
2017-05-20T16:11:19.639Z,39.30
2017-05-20T16:13:47.924Z,39.60
2017-05-20T16:16:16.211Z,38.60
2017-05-20T16:18:44.633Z,35.10
2017-05-20T16:21:12.914Z,35.00
2017-05-20T16:23:41.196Z,34.80
2017-05-20T16:26:09.503Z,33.70
2017-05-20T16:28:37.787Z,32.00
2017-05-20T16:31:06.098Z,31.40
2017-05-20T16:33:34.384Z,31.90
2017-05-20T16:36:02.828Z,33.80
2017-05-20T16:38:31.129Z,35.90
2017-05-20T16:40:59.402Z,35.20
2017-05-20T16:43:27.911Z,33.90
2017-05-20T16:45:56.196Z,34.70
2017-05-20T16:48:25.195Z,38.00
2017-05-20T16:50:53.494Z,35.80
2017-05-20T16:53:21.780Z,37.50
2017-05-20T16:55:50.083Z,38.10
2017-05-20T16:58:18.364Z,40.30
2017-05-20T17:00:46.776Z,40.00
2017-05-20T17:03:15.067Z,36.60
2017-05-20T17:05:43.364Z,33.30
2017-05-20T17:08:11.676Z,32.40
2017-05-20T17:10:39.983Z,30.90
2017-05-20T17:13:08.603Z,30.00
2017-05-20T17:15:36.887Z,29.60
2017-05-20T17:18:05.187Z,29.50
2017-05-20T17:20:33.490Z,29.30
2017-05-20T17:23:01.763Z,30.00
2017-05-20T17:25:30.175Z,30.10
2017-05-20T17:27:58.459Z,30.60
2017-05-20T17:30:26.742Z,31.60
2017-05-20T17:32:55.169Z,33.50
2017-05-20T17:35:23.455Z,34.60
2017-05-20T17:37:51.744Z,36.50
2017-05-20T17:40:20.049Z,36.20
2017-05-20T17:42:48.338Z,36.30
2017-05-20T17:45:16.916Z,37.60
2017-05-20T17:47:45.204Z,38.50
2017-05-20T17:50:13.486Z,40.20
2017-05-20T17:52:41.798Z,41.60
2017-05-20T17:55:10.089Z,42.10
2017-05-20T17:57:38.536Z,42.80
2017-05-20T18:00:06.833Z,43.70
2017-05-20T18:02:35.112Z,44.70
2017-05-20T18:05:03.730Z,45.20
2017-05-20T18:07:32.020Z,45.50
2017-05-20T18:10:00.302Z,45.60
2017-05-20T18:12:28.607Z,46.30
2017-05-20T18:14:56.888Z,46.60
2017-05-20T18:17:25.332Z,47.70
2017-05-20T18:19:53.631Z,46.50
2017-05-20T18:22:21.962Z,46.80
2017-05-20T18:24:50.640Z,46.90
2017-05-20T18:27:18.927Z,47.10
2017-05-20T18:29:47.244Z,47.40
2017-05-20T18:32:15.943Z,48.30
2017-05-20T18:34:44.243Z,49.50
2017-05-20T18:37:12.559Z,48.20
2017-05-20T18:39:40.935Z,48.90
2017-05-20T18:42:09.218Z,49.00
2017-05-20T18:44:37.514Z,48.90
2017-05-20T18:47:05.791Z,48.90
2017-05-20T18:49:34.267Z,49.80
2017-05-20T18:52:02.546Z,49.70
2017-05-20T18:54:30.831Z,49.70
2017-05-20T18:56:59.426Z,50.90
2017-05-20T18:59:27.716Z,50.70
2017-05-20T19:01:55.994Z,51.20
2017-05-20T19:04:24.299Z,51.90
2017-05-20T19:06:52.584Z,52.00
2017-05-20T19:09:20.885Z,52.60
2017-05-20T19:11:49.158Z,52.70
2017-05-20T19:14:17.451Z,53.50
2017-05-20T19:16:45.954Z,54.60
2017-05-20T19:19:14.241Z,54.80
2017-05-20T19:21:42.585Z,55.20
2017-05-20T19:24:10.908Z,55.80
2017-05-20T19:26:39.183Z,55.80
2017-05-20T19:29:07.596Z,55.90
2017-05-20T19:31:35.880Z,55.90
2017-05-20T19:34:04.170Z,56.20
2017-05-20T19:36:32.697Z,56.70
2017-05-20T19:39:00.986Z,56.50
2017-05-20T19:41:29.263Z,56.70
2017-05-20T19:43:58.014Z,57.60
2017-05-20T19:46:26.295Z,56.60
2017-05-20T19:48:54.572Z,56.40
2017-05-20T19:51:23.079Z,56.90
2017-05-20T19:53:51.359Z,56.60
2017-05-20T19:56:19.643Z,56.40
2017-05-20T19:58:47.963Z,56.70
2017-05-20T20:01:16.242Z,57.00
2017-05-20T20:03:44.543Z,56.80
2017-05-20T20:06:12.823Z,57.50
2017-05-20T20:08:41.351Z,58.00
2017-05-20T20:11:09.651Z,58.10
2017-05-20T20:13:37.931Z,58.60
2017-05-20T20:16:06.393Z,58.60
2017-05-20T20:18:34.725Z,58.70
2017-05-20T20:21:02.990Z,58.80
2017-05-20T20:23:31.279Z,58.70
2017-05-20T20:25:59.562Z,58.90
2017-05-20T20:28:28.211Z,59.60
2017-05-20T20:30:56.486Z,60.70
2017-05-20T20:33:24.775Z,61.00
2017-05-20T20:35:53.239Z,59.90
2017-05-20T20:38:21.635Z,61.80
2017-05-20T20:40:49.996Z,62.00
2017-05-20T20:43:18.295Z,62.20
2017-05-20T20:45:46.582Z,62.00
2017-05-20T20:48:15.236Z,61.50
2017-05-20T20:50:43.520Z,62.10
2017-05-20T20:53:11.800Z,61.80
2017-05-20T20:55:40.103Z,65.60
2017-05-20T20:58:08.387Z,65.40
2017-05-20T21:00:36.815Z,65.80
2017-05-20T21:03:05.108Z,67.00
2017-05-20T21:05:33.405Z,68.40
2017-05-20T21:08:01.706Z,68.10
2017-05-20T21:10:29.987Z,69.40
2017-05-20T21:12:58.607Z,68.20
2017-05-20T21:15:26.907Z,69.30
2017-05-20T21:17:55.192Z,70.20
2017-05-20T21:20:23.499Z,70.60
2017-05-20T21:22:51.779Z,71.00
2017-05-20T21:25:20.291Z,71.30
2017-05-20T21:27:48.572Z,72.20
2017-05-20T21:30:16.855Z,72.70
2017-05-20T21:32:45.523Z,73.00
2017-05-20T21:35:13.807Z,73.80
2017-05-20T21:37:42.098Z,73.30
2017-05-20T21:40:10.408Z,73.60
2017-05-20T21:42:38.696Z,73.80
2017-05-20T21:45:07.208Z,75.20
2017-05-20T21:47:35.499Z,75.00
2017-05-20T21:50:03.778Z,75.30
2017-05-20T21:52:32.095Z,75.40
2017-05-20T21:55:00.386Z,76.30
2017-05-20T21:57:28.691Z,76.10
2017-05-20T21:59:56.975Z,76.70
2017-05-20T22:02:25.401Z,76.20
2017-05-20T22:04:53.691Z,76.50
2017-05-20T22:07:21.974Z,76.80
2017-05-20T22:09:50.281Z,76.50
2017-05-20T22:12:18.569Z,76.30
2017-05-20T22:14:46.986Z,76.10
2017-05-20T22:17:15.286Z,75.80
2017-05-20T22:19:43.570Z,76.40
2017-05-20T22:22:11.879Z,76.60
2017-05-20T22:24:40.163Z,76.80
2017-05-20T22:27:08.592Z,77.10
2017-05-20T22:29:36.872Z,77.70
2017-05-20T22:32:05.150Z,77.30
2017-05-20T22:34:33.453Z,78.00
2017-05-20T22:37:01.734Z,78.10
2017-05-20T22:39:30.395Z,77.20
2017-05-20T22:41:58.780Z,77.20
2017-05-20T22:44:27.059Z,77.30
2017-05-20T22:46:55.360Z,77.50
2017-05-20T22:49:23.635Z,78.40
2017-05-20T22:51:52.040Z,78.60
2017-05-20T22:54:20.323Z,78.20
2017-05-20T22:56:48.607Z,78.70
2017-05-20T22:59:16.932Z,78.70
2017-05-20T23:01:45.216Z,79.30
2017-05-20T23:04:13.663Z,79.10
2017-05-20T23:06:42.655Z,79.20
2017-05-20T23:09:10.943Z,79.30
2017-05-20T23:11:39.250Z,79.80
2017-05-20T23:14:07.527Z,80.00
2017-05-20T23:16:36.176Z,79.70
2017-05-20T23:19:04.462Z,80.50
2017-05-20T23:21:32.739Z,80.50
2017-05-20T23:24:01.043Z,79.90
2017-05-20T23:26:29.328Z,80.40
2017-05-20T23:28:57.752Z,80.60
2017-05-20T23:31:26.050Z,80.80
2017-05-20T23:33:54.336Z,80.90
2017-05-20T23:36:22.650Z,82.00
2017-05-20T23:38:50.950Z,80.80
2017-05-20T23:41:19.400Z,80.90
2017-05-20T23:43:47.691Z,81.30
2017-05-20T23:46:15.967Z,81.40
2017-05-20T23:48:44.671Z,81.80
2017-05-20T23:51:12.955Z,82.40
2017-05-20T23:53:41.243Z,82.60
2017-05-20T23:56:09.562Z,82.70
2017-05-20T23:58:37.848Z,82.60
